Time;durP1;ratioP1;P1;durP2;ratioP2;P2;SDS_P1;SDS_P2;PMS_P1;PMS_P2;Temp;Humidity;BMP_temperature;BMP_pressure;BME280_temperature;BME280_humidity;BME280_pressure;Samples;Min_cycle;Max_cycle;Signal;HPM_P1;HPM_P2
2021/06/04 00:01:28;;;;;;;8.80;3.87;;;;;;;13.14;82.26;101722.53;1690073;84;21580;-75
2021/06/04 00:03:55;;;;;;;12.13;4.15;;;;;;;13.12;82.53;101721.30;1683748;85;21590;-79
2021/06/04 00:06:22;;;;;;;11.40;3.65;;;;;;;13.11;82.77;101715.70;1684255;85;21571;-75
2021/06/04 00:08:51;;;;;;;10.88;3.65;;;;;;;13.12;83.08;101725.67;1683831;85;21089;-74
2021/06/04 00:11:27;;;;;;;16.45;4.00;;;;;;;13.12;83.40;101721.76;1684165;85;21027;-71
2021/06/04 00:13:58;;;;;;;26.30;5.08;;;;;;;13.14;83.70;101722.06;1683825;85;21134;-74
2021/06/04 00:16:30;;;;;;;12.60;4.22;;;;;;;13.17;83.90;101721.88;1684212;85;21063;-70
2021/06/04 00:19:00;;;;;;;7.50;3.27;;;;;;;13.17;83.86;101719.28;1683846;85;21475;-70
2021/06/04 00:21:36;;;;;;;6.95;3.80;;;;;;;13.16;83.92;101720.20;1684138;85;20973;-70
2021/06/04 00:24:05;;;;;;;7.55;3.65;;;;;;;13.15;83.97;101722.88;1683869;85;21028;-70
2021/06/04 00:26:32;;;;;;;8.68;5.62;;;;;;;13.13;84.18;101720.38;1684238;85;21120;-71
2021/06/04 00:29:01;;;;;;;9.68;7.20;;;;;;;13.10;84.29;101722.33;1683931;85;21008;-70
2021/06/04 00:31:28;;;;;;;8.48;6.67;;;;;;;13.06;84.44;101724.24;1684234;85;20964;-72
2021/06/04 00:33:55;;;;;;;13.20;4.97;;;;;;;13.00;84.71;101715.48;1683822;85;20948;-74
2021/06/04 00:36:24;;;;;;;10.15;4.90;;;;;;;12.95;84.93;101716.70;1683719;85;21665;-76
2021/06/04 00:38:55;;;;;;;9.97;4.20;;;;;;;12.91;85.29;101718.64;1683760;85;20925;-71
2021/06/04 00:41:29;;;;;;;5.95;4.00;;;;;;;12.89;85.63;101721.78;1684084;85;20945;-71
2021/06/04 00:44:00;;;;;;;6.67;3.75;;;;;;;12.85;85.86;101715.56;1664186;85;21443;-69
2021/06/04 00:46:27;;;;;;;13.50;4.62;;;;;;;12.81;86.12;101714.05;1683692;85;20873;-73
2021/06/04 00:48:57;;;;;;;10.53;4.83;;;;;;;12.76;86.54;101717.41;1683845;85;21459;-71
2021/06/04 00:51:35;;;;;;;4.17;3.55;;;;;;;12.70;86.82;101709.45;1683922;85;21123;-74
2021/06/04 00:54:04;;;;;;;7.95;3.95;;;;;;;12.64;87.16;101715.87;1683430;85;21535;-72
2021/06/04 00:56:33;;;;;;;6.28;4.35;;;;;;;12.59;87.50;101707.95;1684153;85;21010;-70
2021/06/04 00:59:00;;;;;;;9.73;4.03;;;;;;;12.56;87.72;101711.58;1683901;85;20955;-71
2021/06/04 01:01:31;;;;;;;9.40;3.80;;;;;;;12.53;87.88;101711.77;1683951;85;20966;-71
2021/06/04 01:04:04;;;;;;;6.97;4.17;;;;;;;12.51;87.84;101710.14;1690953;84;21788;-71
2021/06/04 01:06:39;;;;;;;12.98;4.10;;;;;;;12.50;87.89;101711.09;1691798;84;20983;-72
2021/06/04 01:09:51;;;;;;;7.45;3.90;;;;;;;12.48;87.97;101716.83;1691631;84;21649;-71
2021/06/04 01:12:34;;;;;;;9.33;4.03;;;;;;;12.44;88.14;101718.80;1691643;84;21439;-74
2021/06/04 01:15:41;;;;;;;8.58;3.58;;;;;;;12.40;88.30;101717.29;1691510;84;21550;-70
2021/06/04 01:18:14;;;;;;;8.60;3.65;;;;;;;12.39;88.47;101718.66;1691719;84;20944;-68
2021/06/04 01:20:48;;;;;;;8.03;3.92;;;;;;;12.38;88.58;101710.01;1691589;84;20994;-72
2021/06/04 01:23:53;;;;;;;12.63;4.00;;;;;;;12.38;88.67;101713.09;1691661;84;21020;-71
2021/06/04 01:26:33;;;;;;;10.63;4.03;;;;;;;12.37;88.77;101718.77;1630839;88;21054;-69
2021/06/04 01:29:14;;;;;;;14.73;4.60;;;;;;;12.38;88.98;101717.00;1685023;84;21526;-70
2021/06/04 01:31:55;;;;;;;6.70;3.98;;;;;;;12.37;89.07;101720.52;1676011;85;22710;-73
2021/06/04 01:34:35;;;;;;;6.12;3.72;;;;;;;12.35;89.17;101722.39;1679411;85;20968;-71
2021/06/04 01:37:12;;;;;;;7.92;4.00;;;;;;;12.34;89.33;101720.70;1690948;84;21526;-72
2021/06/04 01:39:55;;;;;;;9.20;3.98;;;;;;;12.31;89.52;101719.11;1690706;84;20979;-70
2021/06/04 01:42:29;;;;;;;6.58;3.72;;;;;;;12.33;89.65;101723.76;1691218;84;21072;-74
2021/06/04 01:45:13;;;;;;;6.20;3.30;;;;;;;12.33;89.73;101721.16;1663321;84;21242;-74
2021/06/04 01:48:01;;;;;;;4.70;3.45;;;;;;;12.35;89.69;101717.99;1691181;84;20979;-75
2021/06/04 01:50:38;;;;;;;9.15;3.87;;;;;;;12.38;89.59;101727.42;1690300;84;21027;-72
2021/06/04 01:53:10;;;;;;;4.62;3.15;;;;;;;12.38;89.46;101724.81;1691337;84;20967;-73
2021/06/04 01:55:39;;;;;;;;;;;;;;;12.38;89.47;101728.23;1696888;84;21443;-74
2021/06/04 01:58:17;;;;;;;5.95;3.42;;;;;;;12.40;89.32;101728.16;1658125;86;21192;-72
2021/06/04 02:00:50;;;;;;;4.08;3.15;;;;;;;12.38;89.35;101728.23;1652569;86;20969;-74
2021/06/04 02:03:19;;;;;;;6.95;3.33;;;;;;;12.38;89.42;101729.53;1691687;84;21080;-72
2021/06/04 02:05:53;;;;;;;5.08;3.50;;;;;;;12.41;89.42;101727.24;1691779;83;21073;-74
2021/06/04 02:08:34;;;;;;;6.70;3.60;;;;;;;12.43;89.39;101721.47;1691902;84;21059;-72
2021/06/04 02:11:06;;;;;;;8.13;4.10;;;;;;;12.45;89.25;101728.27;1691940;84;21552;-73
2021/06/04 02:13:33;;;;;;;7.08;3.75;;;;;;;12.50;89.07;101727.56;1691728;84;20965;-74
2021/06/04 02:16:26;;;;;;;5.35;3.30;;;;;;;12.52;89.04;101735.27;1691370;84;21091;-72
2021/06/04 02:19:14;;;;;;;5.40;4.15;;;;;;;12.53;89.05;101736.95;1691828;84;20961;-71
2021/06/04 02:22:09;;;;;;;6.05;4.40;;;;;;;12.52;89.14;101730.06;1690941;84;20985;-76
2021/06/04 02:25:20;;;;;;;4.42;3.77;;;;;;;12.51;89.09;101737.03;1691842;84;21721;-71
2021/06/04 02:27:56;;;;;;;6.78;3.50;;;;;;;12.52;89.27;101737.41;1691865;84;20922;-71
2021/06/04 02:30:44;;;;;;;5.12;3.50;;;;;;;12.54;89.24;101735.55;1692088;84;21020;-75
2021/06/04 02:33:21;;;;;;;8.30;3.70;;;;;;;12.57;89.25;101743.19;1692085;84;20969;-72
2021/06/04 02:35:54;;;;;;;11.83;3.65;;;;;;;12.57;89.26;101741.07;1693087;84;20871;-73
2021/06/04 02:38:34;;;;;;;5.83;4.12;;;;;;;12.54;89.29;101740.75;1693405;84;21158;-71
2021/06/04 02:41:28;;;;;;;7.25;3.95;;;;;;;12.53;89.38;101745.61;1693688;84;21028;-72
2021/06/04 02:44:11;;;;;;;10.13;4.05;;;;;;;12.53;89.52;101748.21;1663385;86;20966;-75
2021/06/04 02:46:48;;;;;;;7.65;3.85;;;;;;;12.54;89.59;101749.05;1663710;86;20984;-69
2021/06/04 02:49:16;;;;;;;9.28;4.15;;;;;;;12.55;89.58;101745.05;1680158;84;20985;-70
2021/06/04 02:52:18;;;;;;;5.42;4.00;;;;;;;12.56;89.60;101744.12;1692621;84;21137;-71
2021/06/04 02:54:46;;;;;;;8.33;3.85;;;;;;;12.59;89.62;101751.77;1693009;84;20906;-70
2021/06/04 02:57:17;;;;;;;7.25;4.05;;;;;;;12.63;89.61;101749.83;1692935;84;21549;-72
2021/06/04 02:59:46;;;;;;;7.33;3.20;;;;;;;12.63;89.52;101749.83;1692640;84;21568;-70
2021/06/04 03:02:24;;;;;;;10.03;4.42;;;;;;;12.65;89.51;101751.87;1692891;84;20961;-71
2021/06/04 03:04:56;;;;;;;4.45;3.50;;;;;;;12.67;89.63;101752.61;1684053;84;21170;-70
2021/06/04 03:07:30;;;;;;;;;;;;;;;12.67;89.69;101752.15;1695641;84;21001;-73
2021/06/04 03:10:03;;;;;;;4.47;3.67;;;;;;;12.67;89.77;101758.66;1672568;84;20156;-75
2021/06/04 03:12:38;;;;;;;7.40;3.80;;;;;;;12.65;89.94;101760.53;1691901;84;20988;-70
2021/06/04 03:15:31;;;;;;;6.90;3.50;;;;;;;12.64;90.04;101757.99;1672129;84;21536;-70
2021/06/04 03:18:00;;;;;;;5.35;3.52;;;;;;;12.62;90.14;101762.46;1691837;84;21957;-71
2021/06/04 03:20:37;;;;;;;5.90;3.58;;;;;;;12.61;90.26;101764.22;1691784;84;21036;-70
2021/06/04 03:23:06;;;;;;;6.53;3.30;;;;;;;12.64;90.31;101764.50;1691941;84;21047;-70
2021/06/04 03:25:39;;;;;;;4.78;3.37;;;;;;;12.67;90.49;101763.87;1691913;84;21454;-72
2021/06/04 03:28:09;;;;;;;8.85;3.60;;;;;;;12.72;90.47;101767.07;1691912;84;21020;-70
2021/06/04 03:30:39;;;;;;;6.25;3.35;;;;;;;12.77;90.36;101771.16;1692001;84;21070;-69
2021/06/04 03:33:08;;;;;;;4.85;2.95;;;;;;;12.82;90.22;101773.89;1691452;84;21523;-70
2021/06/04 03:35:37;;;;;;;5.37;3.50;;;;;;;12.86;90.15;101764.14;1691850;84;21456;-70
2021/06/04 03:38:05;;;;;;;3.92;3.27;;;;;;;12.89;90.04;101763.47;1691988;84;21013;-71
2021/06/04 03:40:33;;;;;;;5.35;3.40;;;;;;;12.94;89.90;101759.30;1691922;84;21600;-70
2021/06/04 03:43:04;;;;;;;7.25;3.72;;;;;;;13.00;89.54;101778.03;1691780;84;21153;-72
2021/06/04 03:45:36;;;;;;;4.87;3.75;;;;;;;13.04;89.34;101763.89;1692060;84;21029;-72
2021/06/04 03:48:04;;;;;;;5.28;3.55;;;;;;;13.08;89.45;101771.08;1691915;84;20989;-70
2021/06/04 03:50:33;;;;;;;6.28;3.40;;;;;;;13.09;89.29;101767.09;1692089;84;21638;-70
2021/06/04 03:53:00;;;;;;;7.05;3.52;;;;;;;13.12;89.42;101774.73;1691869;84;21452;-68
2021/06/04 03:55:27;;;;;;;5.87;3.67;;;;;;;13.18;89.33;101781.34;1691887;84;21949;-68
2021/06/04 03:57:55;;;;;;;6.67;3.40;;;;;;;13.24;89.00;101775.79;1691539;84;20973;-69
2021/06/04 04:00:36;;;;;;;5.50;3.85;;;;;;;13.30;88.74;101768.91;1691745;84;20984;-69
2021/06/04 04:03:04;;;;;;;5.45;4.00;;;;;;;13.36;88.57;101769.84;1691379;84;21000;-70
2021/06/04 04:05:33;;;;;;;5.95;4.00;;;;;;;13.42;88.31;101777.75;1691883;84;21040;-72
2021/06/04 04:08:00;;;;;;;7.45;3.35;;;;;;;13.46;87.94;101772.27;1691698;84;21127;-69
2021/06/04 04:10:27;;;;;;;6.03;3.02;;;;;;;13.51;87.70;101778.49;1691763;84;20961;-70
2021/06/04 04:12:55;;;;;;;7.85;3.50;;;;;;;13.55;87.63;101780.84;1691808;84;21683;-71
2021/06/04 04:15:25;;;;;;;4.83;3.37;;;;;;;13.60;87.64;101783.15;1692086;84;21032;-70
2021/06/04 04:17:54;;;;;;;4.70;3.65;;;;;;;13.66;87.45;101784.92;1691543;84;21555;-69
2021/06/04 04:20:32;;;;;;;6.20;3.40;;;;;;;13.73;87.03;101781.47;1671724;84;21985;-69
2021/06/04 04:22:59;;;;;;;5.22;3.30;;;;;;;13.80;86.66;101790.61;1690394;84;21057;-70
2021/06/04 04:25:33;;;;;;;4.45;3.17;;;;;;;13.87;86.55;101785.84;1691905;84;20977;-72
2021/06/04 04:28:00;;;;;;;7.15;3.47;;;;;;;13.93;86.17;101788.08;1691818;84;21006;-69
2021/06/04 04:30:28;;;;;;;5.25;3.27;;;;;;;13.99;86.06;101785.08;1691711;84;20926;-70
2021/06/04 04:32:56;;;;;;;5.85;3.80;;;;;;;14.07;86.02;101786.77;1691843;84;21975;-72
2021/06/04 04:35:28;;;;;;;6.40;4.15;;;;;;;14.12;85.78;101794.67;1691752;84;21064;-69
2021/06/04 04:37:54;;;;;;;9.90;3.72;;;;;;;14.18;85.57;101792.13;1691874;84;21013;-70
2021/06/04 04:40:23;;;;;;;6.90;3.72;;;;;;;14.22;85.15;101794.92;1691697;84;21072;-72
2021/06/04 04:42:50;;;;;;;6.17;3.50;;;;;;;14.28;85.19;101802.37;1691770;84;21469;-71
2021/06/04 04:45:19;;;;;;;9.23;3.40;;;;;;;14.37;85.18;101798.36;1691960;84;21779;-69
2021/06/04 04:47:46;;;;;;;10.95;4.70;;;;;;;14.45;84.77;101796.11;1691416;84;20933;-70
2021/06/04 04:50:15;;;;;;;6.75;3.87;;;;;;;14.55;84.31;101799.81;1691578;84;20998;-70
2021/06/04 04:52:42;;;;;;;9.53;4.12;;;;;;;14.62;83.77;101804.52;1691531;84;21136;-71
2021/06/04 04:55:12;;;;;;;9.03;4.10;;;;;;;14.68;83.87;101802.81;1691899;84;20969;-69
2021/06/04 04:57:39;;;;;;;10.70;3.37;;;;;;;14.74;83.64;101805.03;1691820;84;21125;-69
2021/06/04 05:00:08;;;;;;;5.87;3.30;;;;;;;14.80;82.88;101811.66;1691585;84;20966;-71
2021/06/04 05:02:35;;;;;;;11.73;3.30;;;;;;;14.86;82.83;101810.41;1691666;84;21028;-69
2021/06/04 05:05:02;;;;;;;5.22;3.50;;;;;;;14.93;82.95;101815.14;1691707;84;21085;-72
2021/06/04 05:07:29;;;;;;;8.73;3.95;;;;;;;14.98;82.98;101811.73;1692002;84;21587;-69
2021/06/04 05:09:58;;;;;;;9.93;4.00;;;;;;;15.00;82.64;101807.70;1691683;84;20910;-70
2021/06/04 05:12:27;;;;;;;6.83;3.80;;;;;;;15.05;82.87;101812.17;1691741;84;20993;-73
2021/06/04 05:14:55;;;;;;;6.55;3.42;;;;;;;15.12;82.88;101809.06;1691697;84;21021;-69
2021/06/04 05:17:24;;;;;;;7.60;3.50;;;;;;;15.23;82.57;101811.78;1691714;84;21013;-70
2021/06/04 05:19:51;;;;;;;7.12;3.70;;;;;;;15.30;81.96;101816.13;1691813;84;21102;-69
2021/06/04 05:22:19;;;;;;;6.97;3.50;;;;;;;15.33;81.85;101825.08;1691754;84;21986;-68
2021/06/04 05:24:47;;;;;;;4.15;3.40;;;;;;;15.39;81.49;101831.20;1691738;84;20981;-71
2021/06/04 05:27:14;;;;;;;5.30;3.55;;;;;;;15.44;81.34;101826.97;1691681;84;21028;-72
2021/06/04 05:29:41;;;;;;;8.88;3.47;;;;;;;15.51;81.34;101839.55;1691673;84;21091;-72
2021/06/04 05:32:08;;;;;;;5.67;3.37;;;;;;;15.60;81.39;101838.91;1691752;84;21088;-71
2021/06/04 05:34:36;;;;;;;6.60;3.70;;;;;;;15.67;80.98;101837.56;1691916;84;21137;-68
2021/06/04 05:37:04;;;;;;;8.78;3.58;;;;;;;15.74;80.54;101835.36;1691315;84;21099;-71
2021/06/04 05:39:31;;;;;;;12.13;3.70;;;;;;;15.80;80.31;101836.24;1691782;84;21057;-70
2021/06/04 05:42:01;;;;;;;5.65;3.60;;;;;;;15.86;80.04;101835.81;1691726;84;20957;-71
2021/06/04 05:44:31;;;;;;;6.08;3.62;;;;;;;15.90;79.76;101835.98;1691633;84;21520;-70
2021/06/04 05:47:02;;;;;;;9.80;4.00;;;;;;;15.97;80.10;101844.23;1691818;84;21144;-74
2021/06/04 05:49:29;;;;;;;6.97;4.00;;;;;;;16.04;79.88;101847.64;1691718;84;20961;-69
2021/06/04 05:51:57;;;;;;;6.37;3.90;;;;;;;16.12;79.93;101853.63;1691945;84;21013;-71
2021/06/04 05:54:27;;;;;;;6.53;3.58;;;;;;;16.18;79.51;101855.35;1691949;84;20993;-71
2021/06/04 05:56:55;;;;;;;12.25;4.40;;;;;;;16.26;79.26;101856.13;1691789;84;20926;-74
2021/06/04 05:59:23;;;;;;;11.60;3.60;;;;;;;16.35;79.30;101861.55;1691569;84;21252;-72
2021/06/04 06:01:52;;;;;;;5.45;3.67;;;;;;;16.49;79.62;101866.29;1687522;84;21020;-75
2021/06/04 06:04:20;;;;;;;12.93;3.75;;;;;;;16.61;79.18;101859.72;1679740;84;21019;-71
2021/06/04 06:06:51;;;;;;;8.23;3.90;;;;;;;16.77;79.05;101856.82;1693092;84;21034;-72
2021/06/04 06:09:20;;;;;;;7.83;3.55;;;;;;;16.88;76.80;101859.01;1693233;84;21471;-68
2021/06/04 06:11:48;;;;;;;8.45;3.67;;;;;;;16.97;75.37;101865.39;1661535;86;21154;-69
2021/06/04 06:14:16;;;;;;;6.22;3.47;;;;;;;17.00;75.12;101867.78;1690186;84;20998;-72
2021/06/04 06:16:45;;;;;;;6.35;3.50;;;;;;;17.06;74.04;101873.03;1661607;86;20999;-71
2021/06/04 06:19:16;;;;;;;12.18;3.62;;;;;;;17.04;73.62;101874.45;1690235;85;21423;-70
2021/06/04 06:21:48;;;;;;;8.30;3.50;;;;;;;17.03;73.43;101875.42;1690107;85;21015;-72
2021/06/04 06:24:15;;;;;;;4.80;2.90;;;;;;;17.07;73.74;101857.17;1661756;86;21147;-69
2021/06/04 06:26:43;;;;;;;6.90;3.40;;;;;;;17.20;73.38;101872.86;1690220;85;21494;-69
2021/06/04 06:29:12;;;;;;;3.27;2.98;;;;;;;17.30;72.66;101874.66;1661374;86;20905;-70
2021/06/04 06:31:40;;;;;;;4.70;3.05;;;;;;;17.34;71.62;101864.78;1690361;84;20973;-71
2021/06/04 06:34:09;;;;;;;6.72;3.37;;;;;;;17.40;71.02;101870.87;1648439;86;21118;-73
2021/06/04 06:36:38;;;;;;;6.53;3.65;;;;;;;17.41;71.11;101866.00;1677866;84;21145;-73
2021/06/04 06:39:20;;;;;;;6.17;3.62;;;;;;;17.48;70.88;101864.59;1675005;85;21004;-76
2021/06/04 06:41:48;;;;;;;5.08;3.40;;;;;;;17.51;70.17;101877.95;1689514;84;20962;-71
2021/06/04 06:44:16;;;;;;;5.75;3.85;;;;;;;17.57;70.00;101870.95;1661646;86;20951;-79
2021/06/04 06:46:43;;;;;;;12.80;4.47;;;;;;;17.62;69.19;101869.64;1690657;84;21007;-73
2021/06/04 06:49:12;;;;;;;7.15;3.62;;;;;;;17.64;70.05;101870.84;1641000;86;21134;-81
2021/06/04 06:51:39;;;;;;;12.70;3.27;;;;;;;17.78;70.47;101871.45;1662623;86;21012;-73
2021/06/04 06:54:09;;;;;;;5.12;3.27;;;;;;;17.96;69.47;101869.20;1634470;87;21524;-71
2021/06/04 06:56:37;;;;;;;7.47;3.67;;;;;;;18.13;69.06;101868.70;1662415;86;20972;-71
2021/06/04 06:59:05;;;;;;;9.08;4.37;;;;;;;18.23;66.14;101867.03;1634522;87;21385;-71
2021/06/04 07:01:32;;;;;;;6.55;3.60;;;;;;;18.21;67.33;101867.64;1662469;86;22110;-71
2021/06/04 07:04:00;;;;;;;5.62;3.45;;;;;;;18.27;67.65;101872.41;1640028;86;21684;-71
2021/06/04 07:06:32;;;;;;;6.17;3.17;;;;;;;18.28;66.19;101866.17;1664025;86;20915;-71
2021/06/04 07:09:00;;;;;;;7.80;3.25;;;;;;;18.27;66.12;101863.20;1663467;86;21622;-72
2021/06/04 07:11:35;;;;;;;14.55;5.95;;;;;;;18.30;66.48;101856.39;1652322;86;21439;-74
2021/06/04 07:14:06;;;;;;;9.63;3.70;;;;;;;18.37;66.87;101856.27;1663444;86;20987;-73
2021/06/04 07:16:34;;;;;;;5.72;2.98;;;;;;;18.47;66.96;101853.74;1652038;86;20988;-73
2021/06/04 07:19:05;;;;;;;8.48;3.45;;;;;;;18.54;65.34;101857.55;1634511;86;21070;-74
2021/06/04 07:21:35;;;;;;;3.70;3.27;;;;;;;18.58;66.17;101860.78;1665975;84;20983;-72
2021/06/04 07:24:03;;;;;;;3.83;2.87;;;;;;;18.68;65.94;101859.08;1679234;85;21135;-72
2021/06/04 07:26:30;;;;;;;5.12;3.20;;;;;;;18.76;64.01;101858.00;1679379;84;21807;-73
2021/06/04 07:29:01;;;;;;;5.37;3.22;;;;;;;18.83;63.23;101863.92;1679404;85;20941;-74
2021/06/04 07:31:30;;;;;;;5.93;3.20;;;;;;;18.92;64.13;101863.67;1691900;84;21012;-76
2021/06/04 07:33:58;;;;;;;5.72;3.60;;;;;;;19.01;62.72;101868.17;1671327;85;21794;-73
2021/06/04 07:36:31;;;;;;;5.75;3.00;;;;;;;19.10;62.10;101867.89;1666188;84;21049;-73
2021/06/04 07:38:59;;;;;;;5.85;3.02;;;;;;;19.11;59.61;101859.05;1651990;86;21973;-74
2021/06/04 07:41:28;;;;;;;8.53;3.17;;;;;;;19.08;59.66;101850.09;1651808;86;21067;-77
2021/06/04 07:43:55;;;;;;;7.70;3.60;;;;;;;19.15;60.15;101854.70;1663365;86;20947;-73
2021/06/04 07:46:23;;;;;;;7.90;2.87;;;;;;;19.24;60.61;101853.12;1663391;86;21014;-71
2021/06/04 07:48:53;;;;;;;6.62;3.45;;;;;;;19.33;59.26;101854.98;1651719;86;21086;-79
2021/06/04 07:51:28;;;;;;;7.28;3.52;;;;;;;19.41;59.32;101849.44;1652012;86;21117;-68
2021/06/04 07:53:54;;;;;;;9.08;3.00;;;;;;;19.51;59.28;101854.28;1651760;86;21529;-73
2021/06/04 07:56:22;;;;;;;5.95;2.95;;;;;;;19.59;58.79;101855.44;1663530;86;20968;-72
2021/06/04 07:58:51;;;;;;;5.90;2.80;;;;;;;19.65;60.61;101858.87;1651992;86;20981;-73
2021/06/04 08:01:20;;;;;;;5.35;3.00;;;;;;;19.78;59.11;101862.97;1664193;86;21007;-74
2021/06/04 08:03:51;;;;;;;4.05;3.00;;;;;;;19.81;57.62;101850.84;1664285;86;21575;-75
2021/06/04 08:06:22;;;;;;;6.30;3.12;;;;;;;19.82;58.53;101851.17;1663700;86;20983;-73
2021/06/04 08:08:57;;;;;;;4.70;2.95;;;;;;;19.88;57.69;101851.13;1652467;86;21043;-78
2021/06/04 08:11:36;;;;;;;5.05;2.75;;;;;;;19.98;57.84;101852.84;1664192;86;21490;-73
2021/06/04 08:14:06;;;;;;;6.12;3.00;;;;;;;19.96;55.98;101849.52;1652134;86;21629;-76
2021/06/04 08:16:36;;;;;;;5.10;3.72;;;;;;;19.99;56.33;101845.30;1667053;84;21110;-71
2021/06/04 08:19:06;;;;;;;4.03;3.02;;;;;;;20.03;56.83;101844.07;1675925;84;21550;-76
2021/06/04 08:21:43;;;;;;;8.03;3.20;;;;;;;20.07;55.54;101845.45;1651749;86;21110;-72
2021/06/04 08:24:19;;;;;;;5.22;2.80;;;;;;;20.10;56.10;101847.00;1663295;86;20984;-72
2021/06/04 08:26:52;;;;;;;11.22;3.00;;;;;;;20.16;55.21;101843.83;1663278;86;20932;-75
2021/06/04 08:29:35;;;;;;;10.30;3.35;;;;;;;20.18;54.35;101853.74;1663748;86;21973;-74
2021/06/04 08:32:09;;;;;;;6.42;3.12;;;;;;;20.23;56.32;101853.36;1662850;86;20956;-73
2021/06/04 08:34:37;;;;;;;5.15;3.00;;;;;;;20.33;56.16;101856.38;1663540;86;21526;-72
2021/06/04 08:37:06;;;;;;;4.62;2.98;;;;;;;20.50;57.49;101861.00;1663570;86;20952;-77
2021/06/04 08:39:43;;;;;;;6.55;2.95;;;;;;;20.60;51.27;101858.38;1651810;86;21733;-73
2021/06/04 08:42:39;;;;;;;5.87;4.12;;;;;;;20.48;52.42;101855.52;1651891;86;21574;-77
2021/06/04 08:45:37;;;;;;;6.55;3.20;;;;;;;20.43;53.81;101856.40;1651154;86;21020;-75
2021/06/04 08:48:29;;;;;;;5.90;3.00;;;;;;;20.32;54.52;101861.32;1663292;86;21018;-74
2021/06/04 08:51:24;;;;;;;6.20;2.70;;;;;;;20.30;53.13;101850.06;1650874;86;21082;-77
2021/06/04 08:54:00;;;;;;;6.87;2.90;;;;;;;20.43;51.60;101857.23;1662533;86;21162;-73
2021/06/04 08:56:45;;;;;;;6.90;2.80;;;;;;;20.52;51.04;101859.53;1651487;86;21217;-73
2021/06/04 08:59:15;;;;;;;6.80;3.00;;;;;;;20.59;49.92;101857.55;1663353;86;21062;-79
2021/06/04 09:02:02;;;;;;;8.25;3.30;;;;;;;20.61;50.41;101853.95;1652061;86;21115;-71
2021/06/04 09:04:54;;;;;;;5.80;2.80;;;;;;;20.50;49.93;101848.30;1663714;86;21479;-76
2021/06/04 09:07:26;;;;;;;7.45;2.83;;;;;;;20.36;50.44;101854.78;1634472;87;21400;-74
2021/06/04 09:10:05;;;;;;;3.67;2.97;;;;;;;20.29;52.46;101853.69;1662575;86;21157;-73
2021/06/04 09:12:55;;;;;;;8.48;2.22;;;;;;;20.28;52.11;101857.76;1634706;87;21051;-73
2021/06/04 09:15:26;;;;;;;3.25;1.85;;;;;;;20.26;45.51;101859.20;1662444;86;21012;-73
2021/06/04 09:18:18;;;;;;;4.15;1.90;;;;;;;20.28;43.65;101858.59;1662326;86;20945;-73
2021/06/04 09:21:00;;;;;;;6.70;2.20;;;;;;;20.33;42.47;101858.17;1662364;86;21023;-77
2021/06/04 09:23:40;;;;;;;4.28;2.00;;;;;;;20.41;42.73;101854.39;1634512;87;21934;-75
2021/06/04 09:26:10;;;;;;;2.70;2.00;;;;;;;20.50;42.47;101860.16;1670891;84;21003;-74
2021/06/04 09:28:47;;;;;;;3.22;2.30;;;;;;;20.54;42.35;101852.34;1650829;86;32605;-75
2021/06/04 09:31:44;;;;;;;5.50;2.77;;;;;;;20.65;44.31;101850.87;1689892;84;21115;-76
2021/06/04 09:34:30;;;;;;;3.98;2.22;;;;;;;20.87;45.90;101857.20;1661570;85;21004;-77
2021/06/04 09:37:03;;;;;;;3.47;1.75;;;;;;;21.10;45.39;101849.88;1690195;84;21161;-75
2021/06/04 09:39:37;;;;;;;;;;;;;;;21.29;42.72;101849.84;1692788;84;20976;-74
2021/06/04 09:42:22;;;;;;;6.95;2.52;;;;;;;21.44;39.68;101854.22;1690019;84;20187;-75
2021/06/04 09:45:12;;;;;;;5.10;1.72;;;;;;;21.47;38.92;101853.92;1684792;83;21021;-73
2021/06/04 09:47:47;;;;;;;4.67;1.65;;;;;;;21.57;39.17;101856.87;1644550;85;21561;-74
2021/06/04 09:50:23;;;;;;;6.35;2.35;;;;;;;21.72;37.65;101860.39;1675822;85;21822;-72
2021/06/04 09:53:08;;;;;;;6.62;1.92;;;;;;;21.74;37.60;101858.42;1661543;85;21424;-73
2021/06/04 09:55:44;;;;;;;4.92;2.17;;;;;;;21.63;39.12;101859.45;1689984;84;21015;-79
2021/06/04 09:58:27;;;;;;;3.47;2.12;;;;;;;21.57;39.38;101859.99;1634368;87;21142;-78
2021/06/04 10:01:03;;;;;;;7.58;2.17;;;;;;;21.77;39.95;101852.84;1662357;86;21143;-71
2021/06/04 10:03:45;;;;;;;2.20;1.70;;;;;;;21.97;40.57;101851.34;1662156;86;21168;-75
2021/06/04 10:06:33;;;;;;;2.55;1.75;;;;;;;22.06;38.53;101845.66;1648036;86;21070;-69
2021/06/04 10:09:21;;;;;;;4.50;2.05;;;;;;;22.05;37.84;101851.44;1641952;87;20973;-78
2021/06/04 10:11:56;;;;;;;2.17;1.87;;;;;;;21.94;38.29;101850.80;1655732;86;21491;-72
2021/06/04 10:14:55;;;;;;;3.85;2.10;;;;;;;21.74;37.29;101848.69;1656240;86;21545;-71
2021/06/04 10:17:49;;;;;;;4.03;2.50;;;;;;;21.45;38.07;101851.89;1655819;86;22033;-69
2021/06/04 10:20:34;;;;;;;4.33;1.92;;;;;;;21.18;39.26;101856.63;1654911;86;21032;-71
2021/06/04 10:23:26;;;;;;;4.12;2.12;;;;;;;21.03;41.64;101860.61;1656193;86;21535;-76
2021/06/04 10:26:03;;;;;;;6.22;2.25;;;;;;;20.93;42.00;101856.65;1631354;86;21653;-71
2021/06/04 10:28:42;;;;;;;3.55;2.20;;;;;;;20.89;43.57;101855.28;1656344;86;21090;-72
2021/06/04 10:31:39;;;;;;;9.35;2.70;;;;;;;20.95;42.45;101862.64;1656302;86;21177;-74
2021/06/04 10:34:47;;;;;;;4.28;1.85;;;;;;;21.04;42.75;101860.96;1656212;86;21011;-73
2021/06/04 10:37:43;;;;;;;3.25;2.20;;;;;;;21.26;42.32;101866.45;1669870;85;21052;-76
2021/06/04 10:40:25;;;;;;;2.15;1.60;;;;;;;21.44;41.67;101864.27;1656200;86;21047;-77
2021/06/04 10:43:31;;;;;;;2.53;1.70;;;;;;;21.64;41.84;101855.80;1656786;86;21095;-81
2021/06/04 10:46:09;;;;;;;6.75;2.00;;;;;;;21.83;37.67;101846.98;1656006;86;21164;-73
2021/06/04 10:49:11;;;;;;;4.70;1.82;;;;;;;21.92;37.39;101845.65;1656235;86;21000;-75
2021/06/04 10:52:23;;;;;;;4.85;2.00;;;;;;;22.14;37.32;101842.61;1655385;86;21094;-76
2021/06/04 10:55:19;;;;;;;3.05;1.90;;;;;;;22.29;36.07;101839.00;1655891;86;21086;-72
2021/06/04 10:57:49;;;;;;;2.12;1.50;;;;;;;22.28;36.82;101840.45;1656781;86;21011;-77
2021/06/04 11:00:28;;;;;;;6.30;2.02;;;;;;;22.21;36.78;101849.98;1656682;86;21809;-73
2021/06/04 11:03:19;;;;;;;4.92;1.75;;;;;;;22.05;36.75;101843.50;1656533;86;20976;-70
2021/06/04 11:05:57;;;;;;;3.33;1.98;;;;;;;21.97;37.55;101842.58;1659332;85;21049;-73
2021/06/04 11:08:44;;;;;;;1.52;1.32;;;;;;;22.05;38.13;101838.70;1663671;86;21001;-80
2021/06/04 11:11:23;;;;;;;7.97;2.17;;;;;;;22.29;35.15;101849.58;1663997;86;20965;-73
2021/06/04 11:14:48;;;;;;;4.53;2.12;;;;;;;22.57;34.82;101838.45;1664011;86;21025;-71
2021/06/04 11:17:43;;;;;;;3.30;1.80;;;;;;;22.76;35.20;101840.16;1684617;84;21464;-74
2021/06/04 11:20:27;;;;;;;3.27;1.85;;;;;;;23.04;33.87;101846.52;1690421;84;21087;-72
2021/06/04 11:22:59;;;;;;;5.47;1.70;;;;;;;23.15;34.32;101838.35;1691276;84;21629;-72
2021/06/04 11:26:02;;;;;;;6.87;1.87;;;;;;;23.34;35.16;101836.48;1691931;84;21650;-73
2021/06/04 11:29:07;;;;;;;6.65;2.00;;;;;;;23.55;35.27;101832.99;1691860;84;21146;-72
2021/06/04 11:32:04;;;;;;;4.33;2.17;;;;;;;23.67;34.39;101833.09;1691623;84;21236;-75
2021/06/04 11:35:10;;;;;;;8.55;2.33;;;;;;;24.02;34.41;101827.61;1689304;84;21124;-74
2021/06/04 11:38:03;;;;;;;4.55;1.92;;;;;;;24.38;33.95;101827.42;1692054;84;20949;-78
2021/06/04 11:40:51;;;;;;;3.92;2.17;;;;;;;24.50;33.96;101834.06;1692647;84;21080;-77
2021/06/04 11:43:26;;;;;;;6.20;1.95;;;;;;;24.47;34.25;101838.38;1691815;84;21124;-74
2021/06/04 11:46:30;;;;;;;3.75;1.70;;;;;;;24.51;34.57;101841.84;1691732;84;21559;-72
2021/06/04 11:49:08;;;;;;;2.80;1.55;;;;;;;24.40;32.55;101836.03;1691606;84;21020;-74
2021/06/04 11:51:50;;;;;;;3.83;1.95;;;;;;;23.84;33.16;101844.08;1691866;84;21029;-74
2021/06/04 11:54:36;;;;;;;3.40;2.10;;;;;;;23.29;33.11;101848.88;1691722;84;21058;-70
2021/06/04 11:57:29;;;;;;;7.15;2.42;;;;;;;22.88;34.86;101854.33;1692005;84;21938;-70
2021/06/04 12:00:28;;;;;;;5.50;2.02;;;;;;;22.73;36.08;101850.55;1690139;84;20967;-69
2021/06/04 12:03:14;;;;;;;4.58;1.40;;;;;;;22.86;35.42;101846.20;1692542;84;21056;-72
2021/06/04 12:05:51;;;;;;;2.72;1.80;;;;;;;23.19;36.07;101844.17;1692398;84;21020;-78